sensor_id;sensor_type;location;lat;lon;timestamp;P1;durP1;ratioP1;P2;durP2;ratioP2
76599;SDS011;65489;52.048;6.090;2023-04-24T00:00:00;0.50;;;0.30;;
76599;SDS011;65489;52.048;6.090;2023-04-24T00:02:29;0.60;;;0.30;;
76599;SDS011;65489;52.048;6.090;2023-04-24T00:04:55;0.70;;;0.30;;
76599;SDS011;65489;52.048;6.090;2023-04-24T00:07:21;0.55;;;0.40;;
76599;SDS011;65489;52.048;6.090;2023-04-24T00:09:46;0.65;;;0.40;;
76599;SDS011;65489;52.048;6.090;2023-04-24T00:12:12;0.70;;;0.20;;
76599;SDS011;65489;52.048;6.090;2023-04-24T00:14:37;0.65;;;0.30;;
76599;SDS011;65489;52.048;6.090;2023-04-24T00:17:03;0.30;;;0.30;;
76599;SDS011;65489;52.048;6.090;2023-04-24T00:19:29;1.33;;;0.38;;
76599;SDS011;65489;52.048;6.090;2023-04-24T00:21:54;0.50;;;0.30;;
76599;SDS011;65489;52.048;6.090;2023-04-24T00:24:20;0.93;;;0.30;;
76599;SDS011;65489;52.048;6.090;2023-04-24T00:26:46;0.40;;;0.30;;
76599;SDS011;65489;52.048;6.090;2023-04-24T00:29:11;0.60;;;0.30;;
76599;SDS011;65489;52.048;6.090;2023-04-24T00:31:37;0.43;;;0.25;;
76599;SDS011;65489;52.048;6.090;2023-04-24T00:34:03;1.05;;;0.40;;
76599;SDS011;65489;52.048;6.090;2023-04-24T00:36:29;0.47;;;0.35;;
76599;SDS011;65489;52.048;6.090;2023-04-24T00:38:55;0.52;;;0.43;;
76599;SDS011;65489;52.048;6.090;2023-04-24T00:41:22;0.50;;;0.30;;
76599;SDS011;65489;52.048;6.090;2023-04-24T00:43:48;0.50;;;0.40;;
76599;SDS011;65489;52.048;6.090;2023-04-24T00:46:14;0.40;;;0.30;;
76599;SDS011;65489;52.048;6.090;2023-04-24T00:48:39;0.50;;;0.22;;
76599;SDS011;65489;52.048;6.090;2023-04-24T00:51:06;0.57;;;0.40;;
76599;SDS011;65489;52.048;6.090;2023-04-24T00:53:31;0.55;;;0.30;;
76599;SDS011;65489;52.048;6.090;2023-04-24T00:55:57;0.40;;;0.28;;
76599;SDS011;65489;52.048;6.090;2023-04-24T00:58:23;0.40;;;0.20;;
76599;SDS011;65489;52.048;6.090;2023-04-24T01:00:49;0.73;;;0.28;;
76599;SDS011;65489;52.048;6.090;2023-04-24T01:03:21;0.50;;;0.30;;
76599;SDS011;65489;52.048;6.090;2023-04-24T01:05:48;0.40;;;0.30;;
76599;SDS011;65489;52.048;6.090;2023-04-24T01:08:14;0.70;;;0.40;;
76599;SDS011;65489;52.048;6.090;2023-04-24T01:10:40;1.05;;;0.40;;
76599;SDS011;65489;52.048;6.090;2023-04-24T01:13:09;0.60;;;0.40;;
76599;SDS011;65489;52.048;6.090;2023-04-24T01:15:35;0.57;;;0.40;;
76599;SDS011;65489;52.048;6.090;2023-04-24T01:18:01;0.50;;;0.30;;
76599;SDS011;65489;52.048;6.090;2023-04-24T01:20:27;0.35;;;0.20;;
76599;SDS011;65489;52.048;6.090;2023-04-24T01:22:55;0.65;;;0.20;;
76599;SDS011;65489;52.048;6.090;2023-04-24T01:25:22;0.70;;;0.55;;
76599;SDS011;65489;52.048;6.090;2023-04-24T01:27:48;0.47;;;0.40;;
76599;SDS011;65489;52.048;6.090;2023-04-24T01:30:13;0.30;;;0.20;;
76599;SDS011;65489;52.048;6.090;2023-04-24T01:32:39;0.60;;;0.40;;
76599;SDS011;65489;52.048;6.090;2023-04-24T01:35:06;0.57;;;0.47;;
76599;SDS011;65489;52.048;6.090;2023-04-24T01:37:32;0.65;;;0.40;;
76599;SDS011;65489;52.048;6.090;2023-04-24T01:39:58;0.50;;;0.32;;
76599;SDS011;65489;52.048;6.090;2023-04-24T01:42:25;0.60;;;0.30;;
76599;SDS011;65489;52.048;6.090;2023-04-24T01:44:51;0.35;;;0.30;;
76599;SDS011;65489;52.048;6.090;2023-04-24T01:47:16;0.90;;;0.40;;
76599;SDS011;65489;52.048;6.090;2023-04-24T01:49:42;0.98;;;0.30;;
76599;SDS011;65489;52.048;6.090;2023-04-24T01:52:07;0.80;;;0.50;;
76599;SDS011;65489;52.048;6.090;2023-04-24T01:54:33;0.60;;;0.40;;
76599;SDS011;65489;52.048;6.090;2023-04-24T01:56:58;0.60;;;0.50;;
76599;SDS011;65489;52.048;6.090;2023-04-24T01:59:26;1.00;;;0.60;;
76599;SDS011;65489;52.048;6.090;2023-04-24T02:01:53;0.60;;;0.50;;
76599;SDS011;65489;52.048;6.090;2023-04-24T02:04:18;1.02;;;0.75;;
76599;SDS011;65489;52.048;6.090;2023-04-24T02:06:45;0.40;;;0.30;;
76599;SDS011;65489;52.048;6.090;2023-04-24T02:09:10;0.40;;;0.20;;
76599;SDS011;65489;52.048;6.090;2023-04-24T02:11:36;1.27;;;0.43;;
76599;SDS011;65489;52.048;6.090;2023-04-24T02:14:02;0.50;;;0.30;;
76599;SDS011;65489;52.048;6.090;2023-04-24T02:16:28;0.50;;;0.30;;
76599;SDS011;65489;52.048;6.090;2023-04-24T02:18:57;0.70;;;0.30;;
76599;SDS011;65489;52.048;6.090;2023-04-24T02:21:23;0.30;;;0.20;;
76599;SDS011;65489;52.048;6.090;2023-04-24T02:23:48;0.57;;;0.40;;
76599;SDS011;65489;52.048;6.090;2023-04-24T02:26:17;0.50;;;0.38;;
76599;SDS011;65489;52.048;6.090;2023-04-24T02:28:43;0.43;;;0.40;;
76599;SDS011;65489;52.048;6.090;2023-04-24T02:31:09;0.20;;;0.20;;
76599;SDS011;65489;52.048;6.090;2023-04-24T02:33:35;0.65;;;0.25;;
76599;SDS011;65489;52.048;6.090;2023-04-24T02:36:04;0.90;;;0.60;;
76599;SDS011;65489;52.048;6.090;2023-04-24T02:38:29;0.85;;;0.63;;
76599;SDS011;65489;52.048;6.090;2023-04-24T02:40:55;0.77;;;0.40;;
76599;SDS011;65489;52.048;6.090;2023-04-24T02:43:20;0.60;;;0.45;;
76599;SDS011;65489;52.048;6.090;2023-04-24T02:45:46;0.93;;;0.60;;
76599;SDS011;65489;52.048;6.090;2023-04-24T02:48:11;0.90;;;0.50;;
76599;SDS011;65489;52.048;6.090;2023-04-24T02:50:37;0.95;;;0.60;;
76599;SDS011;65489;52.048;6.090;2023-04-24T02:53:03;0.85;;;0.40;;
76599;SDS011;65489;52.048;6.090;2023-04-24T02:55:29;0.70;;;0.60;;
76599;SDS011;65489;52.048;6.090;2023-04-24T02:57:54;0.60;;;0.38;;
76599;SDS011;65489;52.048;6.090;2023-04-24T03:00:20;0.68;;;0.40;;
76599;SDS011;65489;52.048;6.090;2023-04-24T03:02:45;1.00;;;0.55;;
76599;SDS011;65489;52.048;6.090;2023-04-24T03:05:11;1.38;;;0.50;;
76599;SDS011;65489;52.048;6.090;2023-04-24T03:07:39;0.67;;;0.40;;
76599;SDS011;65489;52.048;6.090;2023-04-24T03:10:05;0.40;;;0.40;;
76599;SDS011;65489;52.048;6.090;2023-04-24T03:12:32;0.50;;;0.40;;
76599;SDS011;65489;52.048;6.090;2023-04-24T03:14:57;0.57;;;0.40;;
76599;SDS011;65489;52.048;6.090;2023-04-24T03:17:23;1.83;;;0.40;;
76599;SDS011;65489;52.048;6.090;2023-04-24T03:19:48;0.88;;;0.40;;
76599;SDS011;65489;52.048;6.090;2023-04-24T03:22:13;0.88;;;0.50;;
76599;SDS011;65489;52.048;6.090;2023-04-24T03:24:40;0.68;;;0.40;;
76599;SDS011;65489;52.048;6.090;2023-04-24T03:27:06;0.68;;;0.52;;
76599;SDS011;65489;52.048;6.090;2023-04-24T03:29:45;0.50;;;0.40;;
76599;SDS011;65489;52.048;6.090;2023-04-24T03:32:12;0.70;;;0.40;;
76599;SDS011;65489;52.048;6.090;2023-04-24T03:34:38;1.52;;;0.45;;
76599;SDS011;65489;52.048;6.090;2023-04-24T03:37:04;0.82;;;0.60;;
76599;SDS011;65489;52.048;6.090;2023-04-24T03:39:31;0.50;;;0.50;;
76599;SDS011;65489;52.048;6.090;2023-04-24T03:41:57;0.82;;;0.40;;
76599;SDS011;65489;52.048;6.090;2023-04-24T03:44:31;0.80;;;0.68;;
76599;SDS011;65489;52.048;6.090;2023-04-24T03:46:57;0.60;;;0.50;;
76599;SDS011;65489;52.048;6.090;2023-04-24T03:49:23;1.05;;;0.80;;
76599;SDS011;65489;52.048;6.090;2023-04-24T03:51:49;2.45;;;0.50;;
76599;SDS011;65489;52.048;6.090;2023-04-24T03:54:21;0.85;;;0.55;;
76599;SDS011;65489;52.048;6.090;2023-04-24T03:56:48;0.82;;;0.68;;
76599;SDS011;65489;52.048;6.090;2023-04-24T03:59:14;0.70;;;0.68;;
76599;SDS011;65489;52.048;6.090;2023-04-24T04:01:43;1.08;;;0.60;;
76599;SDS011;65489;52.048;6.090;2023-04-24T04:04:15;1.80;;;0.45;;
76599;SDS011;65489;52.048;6.090;2023-04-24T04:06:42;1.48;;;0.85;;
76599;SDS011;65489;52.048;6.090;2023-04-24T04:09:09;1.10;;;0.70;;
76599;SDS011;65489;52.048;6.090;2023-04-24T04:11:35;0.88;;;0.80;;
76599;SDS011;65489;52.048;6.090;2023-04-24T04:14:02;1.00;;;0.65;;
76599;SDS011;65489;52.048;6.090;2023-04-24T04:16:28;0.90;;;0.70;;
76599;SDS011;65489;52.048;6.090;2023-04-24T04:19:00;1.27;;;0.65;;
76599;SDS011;65489;52.048;6.090;2023-04-24T04:21:26;1.38;;;1.00;;
76599;SDS011;65489;52.048;6.090;2023-04-24T04:23:59;0.90;;;0.60;;
76599;SDS011;65489;52.048;6.090;2023-04-24T04:26:30;0.70;;;0.60;;
76599;SDS011;65489;52.048;6.090;2023-04-24T04:29:03;0.60;;;0.50;;
76599;SDS011;65489;52.048;6.090;2023-04-24T04:31:30;0.73;;;0.60;;
76599;SDS011;65489;52.048;6.090;2023-04-24T04:33:58;2.55;;;0.70;;
76599;SDS011;65489;52.048;6.090;2023-04-24T04:36:24;0.70;;;0.60;;
76599;SDS011;65489;52.048;6.090;2023-04-24T04:38:58;1.42;;;0.50;;
76599;SDS011;65489;52.048;6.090;2023-04-24T04:41:53;0.75;;;0.65;;
76599;SDS011;65489;52.048;6.090;2023-04-24T04:44:21;0.60;;;0.60;;
76599;SDS011;65489;52.048;6.090;2023-04-24T04:46:47;0.80;;;0.73;;
76599;SDS011;65489;52.048;6.090;2023-04-24T04:49:22;1.20;;;0.60;;
76599;SDS011;65489;52.048;6.090;2023-04-24T04:51:49;0.98;;;0.85;;
76599;SDS011;65489;52.048;6.090;2023-04-24T04:54:16;1.15;;;0.70;;
76599;SDS011;65489;52.048;6.090;2023-04-24T04:56:42;0.80;;;0.70;;
76599;SDS011;65489;52.048;6.090;2023-04-24T04:59:08;1.15;;;0.70;;
76599;SDS011;65489;52.048;6.090;2023-04-24T05:01:36;1.00;;;0.70;;
76599;SDS011;65489;52.048;6.090;2023-04-24T05:04:02;1.17;;;0.77;;
76599;SDS011;65489;52.048;6.090;2023-04-24T05:06:28;0.73;;;0.70;;
76599;SDS011;65489;52.048;6.090;2023-04-24T05:08:54;0.80;;;0.70;;
76599;SDS011;65489;52.048;6.090;2023-04-24T05:14:00;1.10;;;0.70;;
76599;SDS011;65489;52.048;6.090;2023-04-24T05:16:37;1.20;;;0.85;;
76599;SDS011;65489;52.048;6.090;2023-04-24T05:19:05;1.10;;;0.85;;
76599;SDS011;65489;52.048;6.090;2023-04-24T05:21:35;1.10;;;0.70;;
76599;SDS011;65489;52.048;6.090;2023-04-24T05:24:01;1.00;;;0.80;;
76599;SDS011;65489;52.048;6.090;2023-04-24T05:26:52;1.13;;;0.85;;
76599;SDS011;65489;52.048;6.090;2023-04-24T05:29:23;1.08;;;0.80;;
76599;SDS011;65489;52.048;6.090;2023-04-24T05:31:48;1.25;;;0.85;;
76599;SDS011;65489;52.048;6.090;2023-04-24T05:34:15;1.15;;;1.05;;
76599;SDS011;65489;52.048;6.090;2023-04-24T05:36:43;1.25;;;0.82;;
76599;SDS011;65489;52.048;6.090;2023-04-24T05:39:09;0.75;;;0.70;;
76599;SDS011;65489;52.048;6.090;2023-04-24T05:41:34;0.93;;;0.82;;
76599;SDS011;65489;52.048;6.090;2023-04-24T05:44:00;2.17;;;1.90;;
76599;SDS011;65489;52.048;6.090;2023-04-24T05:46:26;2.28;;;1.10;;
76599;SDS011;65489;52.048;6.090;2023-04-24T05:48:51;1.10;;;0.98;;
76599;SDS011;65489;52.048;6.090;2023-04-24T05:51:17;1.05;;;0.90;;
76599;SDS011;65489;52.048;6.090;2023-04-24T05:53:43;0.75;;;0.70;;
76599;SDS011;65489;52.048;6.090;2023-04-24T05:56:09;1.08;;;0.82;;
76599;SDS011;65489;52.048;6.090;2023-04-24T05:58:35;1.45;;;0.95;;
76599;SDS011;65489;52.048;6.090;2023-04-24T06:01:03;1.17;;;0.90;;
76599;SDS011;65489;52.048;6.090;2023-04-24T06:03:29;2.28;;;0.88;;
76599;SDS011;65489;52.048;6.090;2023-04-24T06:05:55;0.98;;;0.80;;
76599;SDS011;65489;52.048;6.090;2023-04-24T06:08:21;1.77;;;1.30;;
76599;SDS011;65489;52.048;6.090;2023-04-24T06:10:48;1.60;;;0.90;;
76599;SDS011;65489;52.048;6.090;2023-04-24T06:13:15;1.20;;;1.10;;
76599;SDS011;65489;52.048;6.090;2023-04-24T06:15:50;0.73;;;0.60;;
76599;SDS011;65489;52.048;6.090;2023-04-24T06:18:21;1.05;;;0.80;;
76599;SDS011;65489;52.048;6.090;2023-04-24T06:20:47;1.25;;;0.85;;
76599;SDS011;65489;52.048;6.090;2023-04-24T06:23:13;1.27;;;1.00;;
76599;SDS011;65489;52.048;6.090;2023-04-24T06:25:38;1.35;;;0.80;;
76599;SDS011;65489;52.048;6.090;2023-04-24T06:28:04;1.10;;;1.00;;
76599;SDS011;65489;52.048;6.090;2023-04-24T06:30:30;1.60;;;0.80;;
76599;SDS011;65489;52.048;6.090;2023-04-24T06:32:56;0.80;;;0.70;;
76599;SDS011;65489;52.048;6.090;2023-04-24T06:35:22;1.05;;;0.90;;
76599;SDS011;65489;52.048;6.090;2023-04-24T06:37:48;1.40;;;0.70;;
76599;SDS011;65489;52.048;6.090;2023-04-24T06:40:13;1.20;;;0.80;;
76599;SDS011;65489;52.048;6.090;2023-04-24T06:42:39;0.63;;;0.60;;
76599;SDS011;65489;52.048;6.090;2023-04-24T06:45:07;1.08;;;0.82;;
76599;SDS011;65489;52.048;6.090;2023-04-24T06:47:32;0.88;;;0.80;;
76599;SDS011;65489;52.048;6.090;2023-04-24T06:49:58;0.80;;;0.80;;
76599;SDS011;65489;52.048;6.090;2023-04-24T06:52:24;0.98;;;0.70;;
76599;SDS011;65489;52.048;6.090;2023-04-24T06:54:49;1.00;;;0.90;;
76599;SDS011;65489;52.048;6.090;2023-04-24T06:57:15;0.93;;;0.73;;
76599;SDS011;65489;52.048;6.090;2023-04-24T06:59:41;0.63;;;0.60;;
76599;SDS011;65489;52.048;6.090;2023-04-24T07:02:07;0.75;;;0.75;;
76599;SDS011;65489;52.048;6.090;2023-04-24T07:04:33;0.80;;;0.70;;
76599;SDS011;65489;52.048;6.090;2023-04-24T07:06:58;0.95;;;0.80;;
76599;SDS011;65489;52.048;6.090;2023-04-24T07:09:24;0.82;;;0.80;;
76599;SDS011;65489;52.048;6.090;2023-04-24T07:11:51;0.82;;;0.65;;
76599;SDS011;65489;52.048;6.090;2023-04-24T07:14:17;0.95;;;0.70;;
76599;SDS011;65489;52.048;6.090;2023-04-24T07:16:43;0.73;;;0.65;;
76599;SDS011;65489;52.048;6.090;2023-04-24T07:19:08;0.60;;;0.60;;
76599;SDS011;65489;52.048;6.090;2023-04-24T07:21:34;1.58;;;0.70;;
76599;SDS011;65489;52.048;6.090;2023-04-24T07:24:00;0.80;;;0.68;;
76599;SDS011;65489;52.048;6.090;2023-04-24T07:26:28;1.10;;;0.70;;
76599;SDS011;65489;52.048;6.090;2023-04-24T07:28:54;1.05;;;0.70;;
76599;SDS011;65489;52.048;6.090;2023-04-24T07:31:20;1.02;;;0.70;;
76599;SDS011;65489;52.048;6.090;2023-04-24T07:33:46;0.80;;;0.65;;
76599;SDS011;65489;52.048;6.090;2023-04-24T07:36:12;0.90;;;0.60;;
76599;SDS011;65489;52.048;6.090;2023-04-24T07:38:47;0.63;;;0.60;;
76599;SDS011;65489;52.048;6.090;2023-04-24T07:41:13;1.30;;;0.70;;
76599;SDS011;65489;52.048;6.090;2023-04-24T07:43:39;0.77;;;0.60;;
76599;SDS011;65489;52.048;6.090;2023-04-24T07:46:04;0.60;;;0.55;;
76599;SDS011;65489;52.048;6.090;2023-04-24T07:48:30;0.90;;;0.65;;
76599;SDS011;65489;52.048;6.090;2023-04-24T07:50:55;1.02;;;0.60;;
76599;SDS011;65489;52.048;6.090;2023-04-24T07:53:20;0.70;;;0.50;;
76599;SDS011;65489;52.048;6.090;2023-04-24T07:55:46;1.02;;;0.70;;
76599;SDS011;65489;52.048;6.090;2023-04-24T07:58:11;1.30;;;0.80;;
76599;SDS011;65489;52.048;6.090;2023-04-24T08:00:37;1.80;;;0.90;;
76599;SDS011;65489;52.048;6.090;2023-04-24T08:03:02;3.55;;;1.10;;
76599;SDS011;65489;52.048;6.090;2023-04-24T08:05:28;2.63;;;0.88;;
76599;SDS011;65489;52.048;6.090;2023-04-24T08:07:53;1.02;;;0.70;;
76599;SDS011;65489;52.048;6.090;2023-04-24T08:10:20;1.98;;;0.80;;
76599;SDS011;65489;52.048;6.090;2023-04-24T08:12:46;2.80;;;0.90;;
76599;SDS011;65489;52.048;6.090;2023-04-24T08:15:12;2.15;;;0.80;;
76599;SDS011;65489;52.048;6.090;2023-04-24T08:17:37;3.47;;;1.00;;
76599;SDS011;65489;52.048;6.090;2023-04-24T08:20:03;2.85;;;0.85;;
76599;SDS011;65489;52.048;6.090;2023-04-24T08:22:30;2.60;;;0.80;;
76599;SDS011;65489;52.048;6.090;2023-04-24T08:24:56;1.77;;;0.70;;
76599;SDS011;65489;52.048;6.090;2023-04-24T08:27:22;2.35;;;0.93;;
76599;SDS011;65489;52.048;6.090;2023-04-24T08:29:52;2.30;;;0.80;;
76599;SDS011;65489;52.048;6.090;2023-04-24T08:32:18;2.50;;;0.88;;
76599;SDS011;65489;52.048;6.090;2023-04-24T08:34:43;2.28;;;0.90;;
76599;SDS011;65489;52.048;6.090;2023-04-24T08:37:09;2.88;;;0.95;;
76599;SDS011;65489;52.048;6.090;2023-04-24T08:39:35;3.30;;;1.10;;
76599;SDS011;65489;52.048;6.090;2023-04-24T08:42:00;3.00;;;1.00;;
76599;SDS011;65489;52.048;6.090;2023-04-24T08:44:33;1.90;;;1.15;;
76599;SDS011;65489;52.048;6.090;2023-04-24T08:47:00;4.38;;;1.20;;
76599;SDS011;65489;52.048;6.090;2023-04-24T08:49:27;2.85;;;1.08;;
76599;SDS011;65489;52.048;6.090;2023-04-24T08:51:53;1.88;;;0.90;;
76599;SDS011;65489;52.048;6.090;2023-04-24T08:54:19;4.53;;;1.20;;
76599;SDS011;65489;52.048;6.090;2023-04-24T08:56:44;2.22;;;1.00;;
76599;SDS011;65489;52.048;6.090;2023-04-24T08:59:10;4.18;;;1.40;;
76599;SDS011;65489;52.048;6.090;2023-04-24T09:01:36;4.22;;;1.20;;
76599;SDS011;65489;52.048;6.090;2023-04-24T09:04:03;2.92;;;1.25;;
76599;SDS011;65489;52.048;6.090;2023-04-24T09:06:29;2.47;;;1.17;;
76599;SDS011;65489;52.048;6.090;2023-04-24T09:08:57;2.72;;;1.23;;
76599;SDS011;65489;52.048;6.090;2023-04-24T09:11:25;3.33;;;1.10;;
76599;SDS011;65489;52.048;6.090;2023-04-24T09:13:52;2.63;;;1.20;;
76599;SDS011;65489;52.048;6.090;2023-04-24T09:16:18;3.67;;;1.35;;
76599;SDS011;65489;52.048;6.090;2023-04-24T09:18:44;1.95;;;1.10;;
76599;SDS011;65489;52.048;6.090;2023-04-24T09:21:10;3.13;;;1.30;;
76599;SDS011;65489;52.048;6.090;2023-04-24T09:23:35;5.03;;;1.40;;
76599;SDS011;65489;52.048;6.090;2023-04-24T09:26:02;3.03;;;1.08;;
76599;SDS011;65489;52.048;6.090;2023-04-24T09:31:12;3.40;;;1.35;;
76599;SDS011;65489;52.048;6.090;2023-04-24T09:33:39;3.28;;;1.02;;
76599;SDS011;65489;52.048;6.090;2023-04-24T09:36:05;2.92;;;1.25;;
76599;SDS011;65489;52.048;6.090;2023-04-24T09:38:37;3.97;;;1.30;;
76599;SDS011;65489;52.048;6.090;2023-04-24T09:41:07;3.70;;;1.30;;
76599;SDS011;65489;52.048;6.090;2023-04-24T09:43:34;3.95;;;1.20;;
76599;SDS011;65489;52.048;6.090;2023-04-24T09:46:03;3.65;;;1.30;;
76599;SDS011;65489;52.048;6.090;2023-04-24T09:48:31;3.25;;;1.50;;
76599;SDS011;65489;52.048;6.090;2023-04-24T09:50:57;3.50;;;1.50;;
76599;SDS011;65489;52.048;6.090;2023-04-24T09:53:27;2.42;;;1.10;;
76599;SDS011;65489;52.048;6.090;2023-04-24T09:55:52;3.30;;;1.35;;
76599;SDS011;65489;52.048;6.090;2023-04-24T09:58:18;2.53;;;1.20;;
76599;SDS011;65489;52.048;6.090;2023-04-24T10:00:52;3.88;;;1.40;;
76599;SDS011;65489;52.048;6.090;2023-04-24T10:03:18;2.88;;;1.10;;
76599;SDS011;65489;52.048;6.090;2023-04-24T10:05:45;3.38;;;1.40;;
76599;SDS011;65489;52.048;6.090;2023-04-24T10:08:11;3.40;;;1.20;;
76599;SDS011;65489;52.048;6.090;2023-04-24T10:13:07;3.03;;;1.20;;
76599;SDS011;65489;52.048;6.090;2023-04-24T10:15:33;7.40;;;1.35;;
76599;SDS011;65489;52.048;6.090;2023-04-24T10:17:59;3.00;;;1.45;;
76599;SDS011;65489;52.048;6.090;2023-04-24T10:20:26;2.85;;;1.17;;
76599;SDS011;65489;52.048;6.090;2023-04-24T10:22:57;3.85;;;1.15;;
76599;SDS011;65489;52.048;6.090;2023-04-24T10:25:24;4.35;;;1.35;;
76599;SDS011;65489;52.048;6.090;2023-04-24T10:27:51;3.35;;;1.38;;
76599;SDS011;65489;52.048;6.090;2023-04-24T10:30:18;3.78;;;1.30;;
76599;SDS011;65489;52.048;6.090;2023-04-24T10:32:45;2.63;;;1.20;;
76599;SDS011;65489;52.048;6.090;2023-04-24T10:35:14;2.20;;;1.00;;
76599;SDS011;65489;52.048;6.090;2023-04-24T10:40:31;2.78;;;1.23;;
76599;SDS011;65489;52.048;6.090;2023-04-24T10:42:58;4.00;;;1.45;;
76599;SDS011;65489;52.048;6.090;2023-04-24T10:45:24;4.18;;;1.35;;
76599;SDS011;65489;52.048;6.090;2023-04-24T10:47:57;3.47;;;1.40;;
76599;SDS011;65489;52.048;6.090;2023-04-24T10:50:26;3.10;;;1.27;;
76599;SDS011;65489;52.048;6.090;2023-04-24T10:53:13;3.00;;;1.05;;
76599;SDS011;65489;52.048;6.090;2023-04-24T10:55:44;3.80;;;1.38;;
76599;SDS011;65489;52.048;6.090;2023-04-24T10:58:11;3.95;;;1.20;;
76599;SDS011;65489;52.048;6.090;2023-04-24T11:00:38;3.33;;;1.20;;
76599;SDS011;65489;52.048;6.090;2023-04-24T11:03:05;2.58;;;1.20;;
76599;SDS011;65489;52.048;6.090;2023-04-24T11:05:49;1.63;;;1.08;;
76599;SDS011;65489;52.048;6.090;2023-04-24T11:08:46;3.45;;;1.23;;
76599;SDS011;65489;52.048;6.090;2023-04-24T11:18:50;1.52;;;0.88;;
76599;SDS011;65489;52.048;6.090;2023-04-24T11:21:25;4.03;;;1.42;;
76599;SDS011;65489;52.048;6.090;2023-04-24T11:23:51;2.97;;;1.20;;
76599;SDS011;65489;52.048;6.090;2023-04-24T11:26:17;2.90;;;1.17;;
76599;SDS011;65489;52.048;6.090;2023-04-24T11:28:45;2.50;;;0.90;;
76599;SDS011;65489;52.048;6.090;2023-04-24T11:34:07;2.05;;;0.98;;
76599;SDS011;65489;52.048;6.090;2023-04-24T11:36:34;2.22;;;1.10;;
76599;SDS011;65489;52.048;6.090;2023-04-24T11:39:00;1.73;;;0.80;;
76599;SDS011;65489;52.048;6.090;2023-04-24T11:41:26;2.63;;;0.95;;
76599;SDS011;65489;52.048;6.090;2023-04-24T11:43:53;2.72;;;1.00;;
76599;SDS011;65489;52.048;6.090;2023-04-24T11:46:20;1.40;;;0.80;;
76599;SDS011;65489;52.048;6.090;2023-04-24T11:48:46;3.25;;;0.90;;
76599;SDS011;65489;52.048;6.090;2023-04-24T11:51:15;3.70;;;1.10;;
76599;SDS011;65489;52.048;6.090;2023-04-24T11:53:41;3.78;;;1.10;;
76599;SDS011;65489;52.048;6.090;2023-04-24T11:56:08;2.10;;;0.90;;
76599;SDS011;65489;52.048;6.090;2023-04-24T11:58:40;3.92;;;0.90;;
76599;SDS011;65489;52.048;6.090;2023-04-24T12:01:05;1.95;;;0.80;;
76599;SDS011;65489;52.048;6.090;2023-04-24T12:03:31;2.35;;;0.90;;
76599;SDS011;65489;52.048;6.090;2023-04-24T12:06:09;1.70;;;0.70;;
76599;SDS011;65489;52.048;6.090;2023-04-24T12:08:36;1.83;;;0.80;;
76599;SDS011;65489;52.048;6.090;2023-04-24T12:11:02;1.38;;;0.70;;
76599;SDS011;65489;52.048;6.090;2023-04-24T12:13:29;3.42;;;0.88;;
76599;SDS011;65489;52.048;6.090;2023-04-24T12:15:54;2.53;;;0.90;;
76599;SDS011;65489;52.048;6.090;2023-04-24T12:18:24;1.95;;;0.60;;
76599;SDS011;65489;52.048;6.090;2023-04-24T12:20:49;2.42;;;0.90;;
76599;SDS011;65489;52.048;6.090;2023-04-24T12:23:15;2.08;;;1.08;;
76599;SDS011;65489;52.048;6.090;2023-04-24T12:25:40;1.65;;;0.80;;
76599;SDS011;65489;52.048;6.090;2023-04-24T12:30:41;1.88;;;0.80;;
76599;SDS011;65489;52.048;6.090;2023-04-24T12:33:09;1.20;;;0.82;;
76599;SDS011;65489;52.048;6.090;2023-04-24T12:35:35;1.80;;;0.80;;
76599;SDS011;65489;52.048;6.090;2023-04-24T12:41:05;1.27;;;0.70;;
76599;SDS011;65489;52.048;6.090;2023-04-24T12:43:31;2.78;;;0.80;;
76599;SDS011;65489;52.048;6.090;2023-04-24T12:45:57;1.83;;;0.88;;
76599;SDS011;65489;52.048;6.090;2023-04-24T12:48:22;1.30;;;0.70;;
76599;SDS011;65489;52.048;6.090;2023-04-24T12:50:48;2.60;;;0.90;;
76599;SDS011;65489;52.048;6.090;2023-04-24T12:53:13;2.13;;;0.90;;
76599;SDS011;65489;52.048;6.090;2023-04-24T12:55:40;3.40;;;0.75;;
76599;SDS011;65489;52.048;6.090;2023-04-24T12:58:05;4.20;;;0.73;;
76599;SDS011;65489;52.048;6.090;2023-04-24T13:00:31;1.98;;;0.60;;
76599;SDS011;65489;52.048;6.090;2023-04-24T13:02:56;1.90;;;0.70;;
76599;SDS011;65489;52.048;6.090;2023-04-24T13:05:21;1.58;;;0.65;;
76599;SDS011;65489;52.048;6.090;2023-04-24T13:07:47;1.63;;;0.70;;
76599;SDS011;65489;52.048;6.090;2023-04-24T13:10:15;1.80;;;0.70;;
76599;SDS011;65489;52.048;6.090;2023-04-24T13:12:40;2.03;;;0.70;;
76599;SDS011;65489;52.048;6.090;2023-04-24T13:15:06;2.95;;;0.65;;
76599;SDS011;65489;52.048;6.090;2023-04-24T13:17:32;2.45;;;0.70;;
76599;SDS011;65489;52.048;6.090;2023-04-24T13:19:58;1.15;;;0.70;;
76599;SDS011;65489;52.048;6.090;2023-04-24T13:22:23;2.22;;;0.70;;
76599;SDS011;65489;52.048;6.090;2023-04-24T13:24:50;2.03;;;0.60;;
76599;SDS011;65489;52.048;6.090;2023-04-24T13:27:15;1.60;;;0.60;;
76599;SDS011;65489;52.048;6.090;2023-04-24T13:29:41;1.10;;;0.52;;
76599;SDS011;65489;52.048;6.090;2023-04-24T13:32:07;2.22;;;0.68;;
76599;SDS011;65489;52.048;6.090;2023-04-24T13:34:33;2.25;;;0.50;;
76599;SDS011;65489;52.048;6.090;2023-04-24T13:36:59;2.33;;;0.70;;
76599;SDS011;65489;52.048;6.090;2023-04-24T13:39:25;0.80;;;0.60;;
76599;SDS011;65489;52.048;6.090;2023-04-24T13:41:51;1.83;;;0.60;;
76599;SDS011;65489;52.048;6.090;2023-04-24T13:44:17;1.30;;;0.68;;
76599;SDS011;65489;52.048;6.090;2023-04-24T13:46:44;1.27;;;0.60;;
76599;SDS011;65489;52.048;6.090;2023-04-24T13:49:11;1.35;;;0.57;;
76599;SDS011;65489;52.048;6.090;2023-04-24T13:51:37;1.50;;;0.65;;
76599;SDS011;65489;52.048;6.090;2023-04-24T13:54:02;2.85;;;0.70;;
76599;SDS011;65489;52.048;6.090;2023-04-24T13:56:28;0.90;;;0.40;;
76599;SDS011;65489;52.048;6.090;2023-04-24T13:58:53;1.23;;;0.75;;
76599;SDS011;65489;52.048;6.090;2023-04-24T14:01:19;1.45;;;0.52;;
76599;SDS011;65489;52.048;6.090;2023-04-24T14:03:46;2.65;;;0.85;;
76599;SDS011;65489;52.048;6.090;2023-04-24T14:06:11;1.60;;;0.70;;
76599;SDS011;65489;52.048;6.090;2023-04-24T14:08:37;1.38;;;0.63;;
76599;SDS011;65489;52.048;6.090;2023-04-24T14:11:02;1.77;;;0.60;;
76599;SDS011;65489;52.048;6.090;2023-04-24T14:13:28;1.95;;;0.80;;
76599;SDS011;65489;52.048;6.090;2023-04-24T14:15:54;0.93;;;0.60;;
76599;SDS011;65489;52.048;6.090;2023-04-24T14:18:19;1.05;;;0.50;;
76599;SDS011;65489;52.048;6.090;2023-04-24T14:20:45;1.30;;;0.80;;
76599;SDS011;65489;52.048;6.090;2023-04-24T14:23:10;2.25;;;0.65;;
76599;SDS011;65489;52.048;6.090;2023-04-24T14:25:36;1.33;;;0.70;;
76599;SDS011;65489;52.048;6.090;2023-04-24T14:28:01;2.22;;;0.82;;
76599;SDS011;65489;52.048;6.090;2023-04-24T14:30:27;1.73;;;0.60;;
76599;SDS011;65489;52.048;6.090;2023-04-24T14:32:52;1.58;;;0.50;;
76599;SDS011;65489;52.048;6.090;2023-04-24T14:35:18;1.85;;;0.80;;
76599;SDS011;65489;52.048;6.090;2023-04-24T14:37:44;1.02;;;0.57;;
76599;SDS011;65489;52.048;6.090;2023-04-24T14:40:09;1.33;;;0.70;;
76599;SDS011;65489;52.048;6.090;2023-04-24T14:42:35;2.25;;;0.70;;
76599;SDS011;65489;52.048;6.090;2023-04-24T14:45:01;1.92;;;0.75;;
76599;SDS011;65489;52.048;6.090;2023-04-24T14:47:27;1.33;;;0.68;;
76599;SDS011;65489;52.048;6.090;2023-04-24T14:49:52;1.90;;;0.70;;
76599;SDS011;65489;52.048;6.090;2023-04-24T14:52:18;1.08;;;0.55;;
76599;SDS011;65489;52.048;6.090;2023-04-24T14:54:43;1.10;;;0.50;;
76599;SDS011;65489;52.048;6.090;2023-04-24T14:57:09;1.25;;;0.57;;
76599;SDS011;65489;52.048;6.090;2023-04-24T14:59:34;2.92;;;0.68;;
76599;SDS011;65489;52.048;6.090;2023-04-24T15:02:00;1.83;;;0.70;;
76599;SDS011;65489;52.048;6.090;2023-04-24T15:04:26;2.03;;;0.80;;
76599;SDS011;65489;52.048;6.090;2023-04-24T15:06:52;2.10;;;0.90;;
76599;SDS011;65489;52.048;6.090;2023-04-24T15:09:19;1.92;;;0.63;;
76599;SDS011;65489;52.048;6.090;2023-04-24T15:14:18;3.75;;;0.98;;